Airfield :







YOU CAN JOIN US ON...

 
LOGIN :

Register | Disclaimer

   EN    FR    IT 

 









Legend :    VFR   Marginal VFR   IFR   Intensive IFR   Very Intensive IFR
Visi :
Ceiling :
>= 8 km
>= 3000ft
5 to 8 km
1000 to 3000 ft
1500m to 5 km
500 to 1000 ft
800 to 1500m
200 to 500 ft
< 800m
< 200 ft
Symbols :   Thunderstorms  Fog  Heavy snow  Heavy precipitations  Wind > 20 kt







- Airport Elevation : 167 ft
- IATA code : YAW


CYAW - CFB Shearwater

CURRENT METAR :
  • 171800Z 19011KT 15SM FEW008 BKN130 BKN250 21/18 A2986 RMK SF1AC6CI1 DA1261FT SLP111

EXPIRED METARs :
  • 171700Z 17010KT 15SM FEW010 BKN120 21/18 A2987 RMK SF1AC7 DA1194FT SLP117
  • 171600Z 17009KT 15SM SCT030 BKN100 OVC130 20/17 A2989 RMK SC4AC2AC2 DA1052FT FST OBS SLP123

TAF TAF CYAW
Valid from the 17 at 18:00 until the 18 at 06:00 UTC


171711Z 1718/1806 18010KT P6SM FEW010 FEW030 BKN120
TEMPO 1718/1721 P6SM -SHRA SCT010 BKN030 OVC120
FM172100 22010KT P6SM FEW008 OVC030
TEMPO 1721/1723 5SM -SHRA BR BKN008 OVC020
PROB30 1721/1723 2SM TSRA BR BKN008 OVC020CB
FM172300 22008KT 5SM -SHRA BR SCT006 OVC020
TEMPO 1723/1802 1/2SM FG VV002
PROB30 1723/1802 2SM TSRA BR BKN006 OVC020CB
FM180200 26008KT 2SM BR OVC006
TEMPO 1802/1806 1/2SM -SHRA FG VV002
BECMG 1804/1806 30005KT RMK NXT FCST BY 180000Z
CZQM FIR / North America



MET'MAP, your aeronautical weather chart ! - Copyright ORBIFLY December 2007 - Disclaimer

ORBIFLY MET'MAP TEAM :

Programming & Development : Alexandra Zaïnal
Concept & Development : Baudouin d'Aumeries
Co-Development & Prog : Marc-Olivier Méhu
Technical & hardware support : Manuel Goepfert

Contact : metmap@orbifly.com




SOURCES & CREDITS :

   NOAA